createdAt,value
2017-08-19T00:00:58.177Z,99.99
2017-08-19T00:01:58.173Z,98.38
2017-08-19T00:02:58.185Z,95.7
2017-08-19T00:03:57.877Z,95.03
2017-08-19T00:04:57.878Z,94.83
2017-08-19T00:05:58.249Z,94.54
2017-08-19T00:06:58.184Z,94.64
2017-08-19T00:07:58.189Z,94.54
2017-08-19T00:08:58.196Z,94.54
2017-08-19T00:09:57.895Z,94.74
2017-08-19T00:10:59.799Z,92.72
2017-08-19T00:11:58.192Z,91.96
2017-08-19T00:12:58.194Z,93.01
2017-08-19T00:13:58.197Z,93.3
2017-08-19T00:14:57.896Z,93.39
2017-08-19T00:15:57.909Z,95.5
2017-08-19T00:16:58.202Z,95.98
2017-08-19T00:17:58.206Z,95.98
2017-08-19T00:18:58.210Z,95.98
2017-08-19T00:19:58.245Z,94.93
2017-08-19T00:20:58.279Z,95.41
2017-08-19T00:21:58.214Z,95.98
2017-08-19T00:22:57.918Z,96.66
2017-08-19T00:23:58.216Z,95.21
2017-08-19T00:24:58.219Z,93.01
2017-08-19T00:25:58.225Z,92.91
2017-08-19T00:26:58.219Z,93.44
2017-08-19T00:27:58.224Z,94.59
2017-08-19T00:29:00.930Z,95.17
2017-08-19T00:29:57.933Z,95.65
2017-08-19T00:30:58.266Z,95.94
2017-08-19T00:31:58.230Z,96.7
2017-08-19T00:32:58.234Z,97.56
2017-08-19T00:33:58.238Z,97.76
2017-08-19T00:34:58.256Z,98.14
2017-08-19T00:35:58.277Z,98.14
2017-08-19T00:36:58.238Z,99.29
2017-08-19T00:37:58.242Z,99.77
2017-08-19T00:38:58.273Z,99.99
2017-08-19T00:39:58.249Z,99.99
2017-08-19T00:40:57.946Z,99.99
2017-08-19T00:41:58.247Z,99.99
2017-08-19T00:42:58.250Z,99.99
2017-08-19T00:43:58.273Z,99.99
2017-08-19T00:44:57.960Z,99.99
2017-08-19T00:45:58.261Z,99.99
2017-08-19T00:46:58.258Z,99.99
2017-08-19T00:47:58.258Z,99.99
2017-08-19T00:48:58.260Z,99.99
2017-08-19T00:49:58.266Z,99.99
2017-08-19T00:50:58.028Z,99.99
2017-08-19T00:51:58.266Z,99.99
2017-08-19T00:52:58.268Z,99.99
2017-08-19T00:53:58.272Z,99.99
2017-08-19T00:54:58.270Z,99.99
2017-08-19T00:55:58.295Z,99.99
2017-08-19T00:56:58.274Z,99.99
2017-08-19T00:57:58.275Z,99.99
2017-08-19T00:58:58.278Z,99.99
2017-08-19T00:59:58.286Z,99.99
2017-08-19T01:00:58.300Z,99.99
2017-08-19T01:01:57.986Z,99.99
2017-08-19T01:02:58.281Z,99.99
2017-08-19T01:03:57.991Z,99.99
2017-08-19T01:04:58.288Z,99.99
2017-08-19T01:05:58.339Z,99.99
2017-08-19T01:06:58.289Z,99.99
2017-08-19T01:07:58.291Z,99.99
2017-08-19T01:08:58.300Z,99.99
2017-08-19T01:09:58.294Z,99.99
2017-08-19T01:10:58.301Z,99.99
2017-08-19T01:11:58.300Z,99.99
2017-08-19T01:12:58.298Z,99.99
2017-08-19T01:13:58.298Z,99.99
2017-08-19T01:14:58.302Z,99.99
2017-08-19T01:15:58.092Z,99.99
2017-08-19T01:16:58.311Z,99.99
2017-08-19T01:17:58.306Z,99.99
2017-08-19T01:18:58.311Z,99.99
2017-08-19T01:19:58.309Z,99.99
2017-08-19T01:20:58.040Z,99.99
2017-08-19T01:21:58.315Z,99.99
2017-08-19T01:22:58.312Z,99.99
2017-08-19T01:23:58.317Z,99.99
2017-08-19T01:24:58.315Z,99.99
2017-08-19T01:25:58.119Z,99.99
2017-08-19T01:26:58.320Z,99.99
2017-08-19T01:27:58.328Z,99.99
2017-08-19T01:28:58.322Z,99.99
2017-08-19T01:29:58.323Z,99.99
2017-08-19T01:30:58.325Z,99.99
2017-08-19T01:31:58.335Z,99.99
2017-08-19T01:32:58.327Z,99.99
2017-08-19T01:33:58.029Z,99.99
2017-08-19T01:34:58.336Z,99.99
2017-08-19T01:35:58.351Z,99.99
2017-08-19T01:36:58.333Z,99.99
2017-08-19T01:37:58.334Z,99.99
2017-08-19T01:38:58.335Z,99.99
2017-08-19T01:39:58.336Z,99.99
2017-08-19T01:40:58.410Z,99.99
2017-08-19T01:41:58.339Z,99.99
2017-08-19T01:42:58.352Z,99.99
2017-08-19T01:43:58.346Z,99.99
2017-08-19T01:44:58.356Z,99.99
2017-08-19T01:45:58.415Z,99.99
2017-08-19T01:46:58.357Z,99.99
2017-08-19T01:47:58.366Z,99.99
2017-08-19T01:48:58.350Z,99.99
2017-08-19T01:49:58.351Z,99.99
2017-08-19T01:50:58.417Z,99.99
2017-08-19T01:51:58.053Z,99.99
2017-08-19T01:52:58.356Z,99.99
2017-08-19T01:53:58.358Z,99.99
2017-08-19T01:54:58.360Z,99.99
2017-08-19T01:55:58.432Z,99.99
2017-08-19T01:56:58.367Z,99.99
2017-08-19T01:57:58.364Z,99.99
2017-08-19T01:58:58.371Z,99.99
2017-08-19T01:59:58.368Z,99.99
2017-08-19T02:00:58.369Z,99.99
2017-08-19T02:01:58.366Z,99.99
2017-08-19T02:02:58.069Z,99.99
2017-08-19T02:03:58.371Z,99.99
2017-08-19T02:04:58.370Z,99.99
2017-08-19T02:05:58.400Z,99.99
2017-08-19T02:06:58.376Z,99.99
2017-08-19T02:07:58.379Z,99.99
2017-08-19T02:08:58.385Z,99.99
2017-08-19T02:09:58.401Z,99.99
2017-08-19T02:10:58.405Z,99.99
2017-08-19T02:11:58.384Z,99.99
2017-08-19T02:12:58.392Z,99.99
2017-08-19T02:13:58.392Z,99.99
2017-08-19T02:14:58.403Z,99.99
2017-08-19T02:15:58.426Z,99.99
2017-08-19T02:16:58.391Z,99.99
2017-08-19T02:17:58.403Z,99.99
2017-08-19T02:18:58.396Z,99.99
2017-08-19T02:19:58.090Z,99.99
2017-08-19T02:20:58.407Z,99.99
2017-08-19T02:21:58.395Z,99.99
2017-08-19T02:22:58.394Z,99.99
2017-08-19T02:23:58.401Z,99.99
2017-08-19T02:24:58.404Z,99.99
2017-08-19T02:25:58.512Z,99.99
2017-08-19T02:26:58.398Z,99.99
2017-08-19T02:27:58.400Z,99.99
2017-08-19T02:28:58.408Z,99.99
2017-08-19T02:29:59.404Z,99.99
2017-08-19T02:30:58.410Z,99.99
2017-08-19T02:31:58.411Z,99.99
2017-08-19T02:32:58.410Z,99.99
2017-08-19T02:33:58.423Z,99.99
2017-08-19T02:34:58.413Z,99.99
2017-08-19T02:35:58.413Z,99.99
2017-08-19T02:36:58.411Z,99.99
2017-08-19T02:37:58.416Z,99.99
2017-08-19T02:38:58.417Z,99.99
2017-08-19T02:39:58.422Z,99.99
2017-08-19T02:40:58.430Z,99.99
2017-08-19T02:41:58.421Z,99.99
2017-08-19T02:42:58.423Z,99.99
2017-08-19T02:43:58.423Z,99.99
2017-08-19T02:44:58.169Z,99.99
2017-08-19T02:45:58.490Z,99.99
2017-08-19T02:46:58.436Z,99.99
2017-08-19T02:47:58.423Z,99.99
2017-08-19T02:48:58.126Z,99.99
2017-08-19T02:49:58.430Z,99.99
2017-08-19T02:50:58.427Z,99.99
2017-08-19T02:51:58.438Z,99.99
2017-08-19T02:52:58.430Z,99.99
2017-08-19T02:53:58.437Z,99.99
2017-08-19T02:54:58.435Z,99.99
2017-08-19T02:55:58.435Z,99.99
2017-08-19T02:56:58.436Z,99.99
2017-08-19T02:57:58.438Z,99.99
2017-08-19T02:58:58.441Z,99.99
2017-08-19T03:00:01.040Z,99.99
2017-08-19T03:00:58.471Z,99.99
2017-08-19T03:01:58.443Z,99.99
2017-08-19T03:02:58.441Z,99.99
2017-08-19T03:03:58.452Z,99.99
2017-08-19T03:04:58.448Z,99.99
2017-08-19T03:05:58.224Z,99.99
2017-08-19T03:06:58.444Z,99.99
2017-08-19T03:07:58.458Z,99.99
2017-08-19T03:08:58.459Z,99.99
2017-08-19T03:09:58.149Z,99.99
2017-08-19T03:10:58.485Z,99.99
2017-08-19T03:11:58.453Z,99.99
2017-08-19T03:12:58.461Z,99.99
2017-08-19T03:13:58.460Z,99.99
2017-08-19T03:14:58.472Z,99.99
2017-08-19T03:15:58.165Z,99.99
2017-08-19T03:16:58.461Z,99.99
2017-08-19T03:17:58.465Z,99.99
2017-08-19T03:18:58.463Z,99.99
2017-08-19T03:19:58.466Z,99.99
2017-08-19T03:20:58.504Z,99.99
2017-08-19T03:21:58.469Z,99.99
2017-08-19T03:22:58.471Z,99.99
2017-08-19T03:23:58.466Z,99.99
2017-08-19T03:24:58.475Z,99.58
2017-08-19T03:25:58.525Z,97.56
2017-08-19T03:26:58.467Z,98.81
2017-08-19T03:27:58.474Z,97.76
2017-08-19T03:28:58.473Z,97.95
2017-08-19T03:29:58.481Z,99.01
2017-08-19T03:30:58.516Z,99.29
2017-08-19T03:31:58.492Z,98.52
2017-08-19T03:32:58.482Z,97.38
2017-08-19T03:33:58.486Z,97.85
2017-08-19T03:34:58.483Z,97.85
2017-08-19T03:35:58.485Z,97.38
2017-08-19T03:36:58.484Z,97.95
2017-08-19T03:37:58.494Z,97.47
2017-08-19T03:38:58.492Z,95.56
2017-08-19T03:39:58.483Z,95.07
2017-08-19T03:40:58.553Z,95.65
2017-08-19T03:41:58.489Z,95.46
2017-08-19T03:42:58.516Z,94.89
2017-08-19T03:43:58.495Z,94.79
2017-08-19T03:44:58.644Z,94.4
2017-08-19T03:45:58.193Z,91.67
2017-08-19T03:46:58.491Z,91.49
2017-08-19T03:47:58.197Z,91.86
2017-08-19T03:48:58.190Z,90.91
2017-08-19T03:49:58.502Z,90.14
2017-08-19T03:50:58.500Z,88.99
2017-08-19T03:51:58.494Z,88.23
2017-08-19T03:52:58.502Z,89.47
2017-08-19T03:53:58.503Z,89.04
2017-08-19T03:54:58.504Z,89.47
2017-08-19T03:55:58.588Z,89.95
2017-08-19T03:56:58.504Z,89.37
2017-08-19T03:57:58.505Z,89.66
2017-08-19T03:58:58.508Z,90.67
2017-08-19T03:59:58.511Z,89.47
2017-08-19T04:00:58.584Z,89.62
2017-08-19T04:01:58.207Z,90.19
2017-08-19T04:02:58.208Z,90.53
2017-08-19T04:03:58.507Z,91.15
2017-08-19T04:04:58.505Z,91.86
2017-08-19T04:05:58.513Z,91.77
2017-08-19T04:06:58.508Z,92.06
2017-08-19T04:07:58.209Z,91.34
2017-08-19T04:08:58.514Z,91.05
2017-08-19T04:09:58.510Z,91.15
2017-08-19T04:10:58.519Z,92.78
2017-08-19T04:11:58.510Z,91.25
2017-08-19T04:12:58.510Z,90.39
2017-08-19T04:13:58.551Z,90.19
2017-08-19T04:14:58.511Z,89.81
2017-08-19T04:15:58.657Z,90.09
2017-08-19T04:16:58.513Z,90.29
2017-08-19T04:17:58.514Z,90.58
2017-08-19T04:18:58.524Z,90.19
2017-08-19T04:19:58.518Z,89.62
2017-08-19T04:20:58.566Z,89.9
2017-08-19T04:21:58.516Z,88.95
2017-08-19T04:22:58.518Z,88.66
2017-08-19T04:23:58.221Z,88.9
2017-08-19T04:24:58.520Z,89.9
2017-08-19T04:25:58.529Z,89.95
2017-08-19T04:26:58.519Z,89.95
2017-08-19T04:27:58.522Z,90.53
2017-08-19T04:28:58.520Z,90.53
2017-08-19T04:29:58.521Z,89.19
2017-08-19T04:31:00.578Z,89.48
2017-08-19T04:31:58.522Z,90.53
2017-08-19T04:32:58.523Z,89.67
2017-08-19T04:33:58.524Z,89.48
2017-08-19T04:34:58.522Z,90.24
2017-08-19T04:35:58.614Z,89.09
2017-08-19T04:36:58.525Z,89.95
2017-08-19T04:37:58.524Z,88.66
2017-08-19T04:38:58.524Z,89.29
2017-08-19T04:39:58.526Z,89.86
2017-08-19T04:40:58.528Z,89.67
2017-08-19T04:41:58.228Z,90.53
2017-08-19T04:42:58.528Z,91.63
2017-08-19T04:43:58.529Z,91.72
2017-08-19T04:44:58.530Z,91.3
2017-08-19T04:45:58.605Z,92.01
2017-08-19T04:46:58.529Z,90.15
2017-08-19T04:47:58.534Z,90.44
2017-08-19T04:48:58.530Z,91.97
2017-08-19T04:49:58.228Z,92.16
2017-08-19T04:50:58.579Z,92.16
2017-08-19T04:51:58.532Z,92.06
2017-08-19T04:52:58.530Z,92.44
2017-08-19T04:53:58.531Z,91.97
2017-08-19T04:54:58.540Z,92.01
2017-08-19T04:55:59.058Z,92.3
2017-08-19T04:56:58.534Z,90.82
2017-08-19T04:57:58.536Z,91.49
2017-08-19T04:58:58.534Z,91.97
2017-08-19T04:59:58.541Z,93.12
2017-08-19T05:00:58.545Z,92.35
2017-08-19T05:01:58.536Z,92.25
2017-08-19T05:02:58.535Z,92.06
2017-08-19T05:03:58.546Z,92.35
2017-08-19T05:04:58.537Z,92.92
2017-08-19T05:05:58.603Z,94.07
2017-08-19T05:06:58.238Z,94.26
2017-08-19T05:07:58.537Z,93.21
2017-08-19T05:08:58.241Z,93.4
2017-08-19T05:09:58.539Z,91.68
2017-08-19T05:10:58.540Z,92.06
2017-08-19T05:11:58.539Z,92.35
2017-08-19T05:12:58.541Z,92.73
2017-08-19T05:13:58.541Z,92.83
2017-08-19T05:14:58.543Z,94.6
2017-08-19T05:15:58.590Z,94.84
2017-08-19T05:16:58.544Z,95.41
2017-08-19T05:17:58.547Z,98.33
2017-08-19T05:18:58.546Z,97.95
2017-08-19T05:19:58.246Z,97.56
2017-08-19T05:20:58.601Z,96.42
2017-08-19T05:21:58.545Z,95.75
2017-08-19T05:22:58.554Z,94.89
2017-08-19T05:23:58.548Z,94.89
2017-08-19T05:24:58.549Z,96.61
2017-08-19T05:25:58.340Z,96.51
2017-08-19T05:26:58.548Z,96.32
2017-08-19T05:27:58.551Z,96.61
2017-08-19T05:28:58.551Z,95.75
2017-08-19T05:29:58.552Z,95.94
2017-08-19T05:30:58.630Z,95.27
2017-08-19T05:31:58.571Z,95.36
2017-08-19T05:32:58.554Z,97.09
2017-08-19T05:33:58.555Z,97.47
2017-08-19T05:34:58.556Z,96.61
2017-08-19T05:35:58.633Z,96.61
2017-08-19T05:36:58.565Z,96.61
2017-08-19T05:37:58.557Z,96.8
2017-08-19T05:38:58.561Z,96.13
2017-08-19T05:39:58.257Z,96.18
2017-08-19T05:40:58.627Z,96.56
2017-08-19T05:41:58.599Z,97.33
2017-08-19T05:42:58.559Z,97.42
2017-08-19T05:43:58.565Z,97.14
2017-08-19T05:44:58.263Z,97.61
2017-08-19T05:45:58.579Z,97.23
2017-08-19T05:46:58.566Z,98.19
2017-08-19T05:47:58.565Z,97.23
2017-08-19T05:48:58.573Z,96.13
2017-08-19T05:49:58.573Z,95.03
2017-08-19T05:50:58.608Z,94.26
2017-08-19T05:51:58.569Z,95.7
2017-08-19T05:52:58.572Z,95.51
2017-08-19T05:53:58.578Z,95.51
2017-08-19T05:54:58.573Z,94.74
2017-08-19T05:55:58.597Z,94.74
2017-08-19T05:56:58.578Z,93.4
2017-08-19T05:57:58.577Z,93.4
2017-08-19T05:58:58.276Z,94.35
2017-08-19T05:59:58.585Z,93.98
2017-08-19T06:00:58.585Z,93.88
2017-08-19T06:01:58.581Z,93.88
2017-08-19T06:02:58.611Z,94.93
2017-08-19T06:03:58.589Z,95.89
2017-08-19T06:04:58.587Z,96.66
2017-08-19T06:05:58.589Z,96.22
2017-08-19T06:06:58.287Z,95.26
2017-08-19T06:07:58.591Z,95.65
2017-08-19T06:08:58.590Z,95.75
2017-08-19T06:09:58.593Z,94.89
2017-08-19T06:10:58.595Z,94.5
2017-08-19T06:11:58.598Z,93.83
2017-08-19T06:12:58.596Z,94.21
2017-08-19T06:13:58.601Z,94.21
2017-08-19T06:14:58.601Z,94.12
2017-08-19T06:15:58.673Z,94.02
2017-08-19T06:16:59.978Z,93.73
2017-08-19T06:17:58.605Z,93.49
2017-08-19T06:18:58.606Z,93.11
2017-08-19T06:19:58.303Z,91.19
2017-08-19T06:20:58.663Z,90.33
2017-08-19T06:21:58.615Z,89.27
2017-08-19T06:22:58.615Z,90.71
2017-08-19T06:23:58.618Z,89.94
2017-08-19T06:24:58.618Z,91.28
2017-08-19T06:25:58.372Z,92.15
2017-08-19T06:26:58.620Z,91.19
2017-08-19T06:27:58.640Z,92.01
2017-08-19T06:28:58.620Z,93.49
2017-08-19T06:29:58.620Z,93.54
2017-08-19T06:30:58.649Z,92.15
2017-08-19T06:32:01.830Z,91.91
2017-08-19T06:32:58.624Z,91.14
2017-08-19T06:33:58.325Z,90.86
2017-08-19T06:34:58.625Z,90.47
2017-08-19T06:35:58.399Z,91.24
2017-08-19T06:36:58.630Z,92.3
2017-08-19T06:37:58.631Z,94.5
2017-08-19T06:38:58.641Z,94.12
2017-08-19T06:39:58.632Z,91.63
2017-08-19T06:40:58.686Z,91.91
2017-08-19T06:41:58.667Z,94.21
2017-08-19T06:42:58.645Z,94.5
2017-08-19T06:43:58.645Z,93.26
2017-08-19T06:44:58.645Z,94.02
2017-08-19T06:45:58.344Z,93.26
2017-08-19T06:46:58.649Z,89.65
2017-08-19T06:47:58.647Z,90.76
2017-08-19T06:48:58.644Z,90.28
2017-08-19T06:49:58.645Z,92.49
2017-08-19T06:50:58.647Z,91.14
2017-08-19T06:51:58.345Z,91.34
2017-08-19T06:52:58.653Z,92.25
2017-08-19T06:53:58.651Z,93.3
2017-08-19T06:54:58.351Z,94.26
2017-08-19T06:55:58.400Z,94.17
2017-08-19T06:56:58.653Z,94.64
2017-08-19T06:57:58.655Z,95.84
2017-08-19T06:58:58.357Z,94.79
2017-08-19T06:59:58.658Z,93.44
2017-08-19T07:00:58.657Z,93.16
2017-08-19T07:01:58.660Z,93.35
2017-08-19T07:02:58.660Z,92.44
2017-08-19T07:03:58.658Z,91.28
2017-08-19T07:04:58.659Z,91.38
2017-08-19T07:05:58.389Z,88.7
2017-08-19T07:06:58.665Z,87.93
2017-08-19T07:07:58.663Z,89.94
2017-08-19T07:08:58.702Z,90.57
2017-08-19T07:09:58.671Z,91.24
2017-08-19T07:10:58.741Z,90.28
2017-08-19T07:11:58.667Z,88.79
2017-08-19T07:12:58.677Z,84.56
2017-08-19T07:13:58.673Z,80.51
2017-08-19T07:14:58.675Z,77.96
2017-08-19T07:15:58.699Z,76.84
2017-08-19T07:16:58.680Z,73.65
2017-08-19T07:17:58.698Z,71.41
2017-08-19T07:18:58.682Z,66.91
2017-08-19T07:19:58.689Z,64.82
2017-08-19T07:20:58.698Z,65.53
2017-08-19T07:21:58.696Z,63.24
2017-08-19T07:22:58.699Z,61.44
2017-08-19T07:23:58.705Z,60.47
2017-08-19T07:24:58.722Z,60.5
2017-08-19T07:25:58.722Z,60.69
2017-08-19T07:26:58.718Z,63.34
2017-08-19T07:27:58.732Z,65.05
2017-08-19T07:28:58.728Z,68.1
2017-08-19T07:29:58.741Z,68.65
2017-08-19T07:30:58.741Z,68.74
2017-08-19T07:31:58.744Z,68.99
2017-08-19T07:32:58.753Z,70.41
2017-08-19T07:33:58.752Z,70.7
2017-08-19T07:34:58.763Z,70.06
2017-08-19T07:35:58.838Z,69.35
2017-08-19T07:36:58.772Z,68.87
2017-08-19T07:37:58.772Z,69.06
2017-08-19T07:38:58.775Z,70.41
2017-08-19T07:39:58.778Z,70.66
2017-08-19T07:40:58.839Z,71.53
2017-08-19T07:41:58.787Z,71.53
2017-08-19T07:42:58.795Z,72.68
2017-08-19T07:43:58.800Z,73.22
2017-08-19T07:44:58.805Z,72.26
2017-08-19T07:45:58.821Z,72.26
2017-08-19T07:46:58.522Z,72.49
2017-08-19T07:47:58.816Z,72.65
2017-08-19T07:48:58.819Z,73.71
2017-08-19T07:49:58.828Z,73.22
2017-08-19T07:50:58.828Z,74.96
2017-08-19T07:51:58.830Z,75.31
2017-08-19T07:52:58.842Z,75.02
2017-08-19T07:53:58.842Z,77.42
2017-08-19T07:54:58.848Z,77.19
2017-08-19T07:55:58.875Z,77.67
2017-08-19T07:56:58.852Z,78.28
2017-08-19T07:57:58.854Z,76.23
2017-08-19T07:58:58.860Z,78.25
2017-08-19T07:59:58.862Z,77
2017-08-19T08:00:58.892Z,78.25
2017-08-19T08:01:58.867Z,77.19
2017-08-19T08:02:58.873Z,76.81
2017-08-19T08:03:58.574Z,76.42
2017-08-19T08:04:58.880Z,77.19
2017-08-19T08:05:58.627Z,77.19
2017-08-19T08:06:58.887Z,77.48
2017-08-19T08:07:58.892Z,77.33
2017-08-19T08:08:58.891Z,75.98
2017-08-19T08:09:58.895Z,77.58
2017-08-19T08:10:58.991Z,77.09
2017-08-19T08:11:58.903Z,76.17
2017-08-19T08:12:58.906Z,76.36
2017-08-19T08:13:58.908Z,76.07
2017-08-19T08:14:58.912Z,76.07
2017-08-19T08:15:58.989Z,76.84
2017-08-19T08:16:58.917Z,76.75
2017-08-19T08:17:59.228Z,76.84
2017-08-19T08:18:58.926Z,76.07
2017-08-19T08:19:58.930Z,76.01
2017-08-19T08:20:58.985Z,75.82
2017-08-19T08:21:58.935Z,75.82
2017-08-19T08:22:58.939Z,75.15
2017-08-19T08:23:58.947Z,74.86
2017-08-19T08:24:58.951Z,73.74
2017-08-19T08:25:59.009Z,72.59
2017-08-19T08:26:58.953Z,72.05
2017-08-19T08:27:58.961Z,72.05
2017-08-19T08:28:58.962Z,72.81
2017-08-19T08:29:58.966Z,71.95
2017-08-19T08:30:59.006Z,72.24
2017-08-19T08:31:58.982Z,71.76
2017-08-19T08:32:59.046Z,71.37
2017-08-19T08:33:58.984Z,71.66
2017-08-19T08:34:58.989Z,72.33
2017-08-19T08:35:58.690Z,71.95
2017-08-19T08:36:58.690Z,71.6
2017-08-19T08:37:59.001Z,71.5
2017-08-19T08:38:59.001Z,70.54
2017-08-19T08:39:59.009Z,69.03
2017-08-19T08:40:59.065Z,67.33
2017-08-19T08:41:58.718Z,66.17
2017-08-19T08:42:59.023Z,65.56
2017-08-19T08:43:58.724Z,64.89
2017-08-19T08:44:59.035Z,64.01
2017-08-19T08:45:59.054Z,63.56
2017-08-19T08:46:59.046Z,64.31
2017-08-19T08:48:03.353Z,66.59
2017-08-19T08:48:59.051Z,66.59
2017-08-19T08:49:59.056Z,65.88
2017-08-19T08:50:59.083Z,67.43
2017-08-19T08:51:58.766Z,68.49
2017-08-19T08:52:59.074Z,67.14
2017-08-19T08:53:59.080Z,65.88
2017-08-19T08:54:59.078Z,67.23
2017-08-19T08:55:59.140Z,68.84
2017-08-19T08:56:59.091Z,66.39
2017-08-19T08:57:59.101Z,67.74
2017-08-19T08:58:59.031Z,68.52
2017-08-19T08:59:59.107Z,69.67
2017-08-19T09:00:59.186Z,70.35
2017-08-19T09:01:59.118Z,69.09
2017-08-19T09:02:59.126Z,69.48
2017-08-19T09:03:59.131Z,68.9
2017-08-19T09:04:59.128Z,69.48
2017-08-19T09:05:59.202Z,68.35
2017-08-19T09:06:59.146Z,68.84
2017-08-19T09:07:59.149Z,67.68
2017-08-19T09:08:59.148Z,67.74
2017-08-19T09:09:59.156Z,68.42
2017-08-19T09:10:59.189Z,68.61
2017-08-19T09:11:59.157Z,67.68
2017-08-19T09:12:59.163Z,68.26
2017-08-19T09:13:59.169Z,66.91
2017-08-19T09:14:59.179Z,64.79
2017-08-19T09:15:59.243Z,65.95
2017-08-19T09:16:59.190Z,66.72
2017-08-19T09:17:59.184Z,66.62
2017-08-19T09:18:58.897Z,65.2
2017-08-19T09:19:59.195Z,64.53
2017-08-19T09:20:59.277Z,62.92
2017-08-19T09:21:59.206Z,61.83
2017-08-19T09:22:59.213Z,60.58
2017-08-19T09:23:59.228Z,62.09
2017-08-19T09:24:59.220Z,60.83
2017-08-19T09:25:59.242Z,61.22
2017-08-19T09:26:59.224Z,61.68
2017-08-19T09:27:59.230Z,61.87
2017-08-19T09:28:59.232Z,63.41
2017-08-19T09:29:59.243Z,64.86
2017-08-19T09:30:59.244Z,63.34
2017-08-19T09:31:59.250Z,63.44
2017-08-19T09:32:59.251Z,62.86
2017-08-19T09:33:59.256Z,64.79
2017-08-19T09:34:58.958Z,63.37
2017-08-19T09:35:59.345Z,62.6
2017-08-19T09:36:59.274Z,62.22
2017-08-19T09:37:59.272Z,62.22
2017-08-19T09:38:58.980Z,61.93
2017-08-19T09:39:59.286Z,60.19
2017-08-19T09:40:59.357Z,58.36
2017-08-19T09:41:59.290Z,58.45
2017-08-19T09:42:58.996Z,58.68
2017-08-19T09:43:59.302Z,58.68
2017-08-19T09:44:59.004Z,57.84
2017-08-19T09:45:59.340Z,57.38
2017-08-19T09:46:59.324Z,55.29
2017-08-19T09:47:59.320Z,54.1
2017-08-19T09:48:59.523Z,53.81
2017-08-19T09:49:59.026Z,54.1
2017-08-19T09:50:59.404Z,54.77
2017-08-19T09:51:59.340Z,54.68
2017-08-19T09:52:59.344Z,54.97
2017-08-19T09:53:59.350Z,55.35
2017-08-19T09:54:59.369Z,55.52
2017-08-19T09:55:59.380Z,55.71
2017-08-19T09:56:59.061Z,55.88
2017-08-19T09:57:59.376Z,56.65
2017-08-19T09:58:59.373Z,56.81
2017-08-19T09:59:59.384Z,57.39
2017-08-19T10:00:59.129Z,58.62
2017-08-19T10:01:59.387Z,58.52
2017-08-19T10:02:59.411Z,59.78
2017-08-19T10:03:59.457Z,60.45
2017-08-19T10:04:59.402Z,61.19
2017-08-19T10:05:59.423Z,61.87
2017-08-19T10:06:59.106Z,62.93
2017-08-19T10:07:59.415Z,63.02
2017-08-19T10:08:59.419Z,63.76
2017-08-19T10:09:59.424Z,63.85
2017-08-19T10:10:59.452Z,64.43
2017-08-19T10:11:59.431Z,64.82
2017-08-19T10:12:59.433Z,65.37
2017-08-19T10:13:59.434Z,65.08
2017-08-19T10:14:59.441Z,65.66
2017-08-19T10:15:59.471Z,66.42
2017-08-19T10:16:59.149Z,66.62
2017-08-19T10:17:59.151Z,66.04
2017-08-19T10:19:00.561Z,65.56
2017-08-19T10:19:59.468Z,65.27
2017-08-19T10:20:59.527Z,65.3
2017-08-19T10:21:59.173Z,64.92
2017-08-19T10:22:59.471Z,65.69
2017-08-19T10:23:59.475Z,65.01
2017-08-19T10:24:59.184Z,65.69
2017-08-19T10:25:59.492Z,64.08
2017-08-19T10:26:59.495Z,64.05
2017-08-19T10:27:59.191Z,63.95
2017-08-19T10:28:59.494Z,63.67
2017-08-19T10:29:59.499Z,62.51
2017-08-19T10:30:59.234Z,62.22
2017-08-19T10:31:59.505Z,62.7
2017-08-19T10:32:59.508Z,62.9
2017-08-19T10:33:59.211Z,62.7
2017-08-19T10:34:59.216Z,62.32
2017-08-19T10:35:59.529Z,62.41
2017-08-19T10:36:59.533Z,62.41
2017-08-19T10:37:59.532Z,62.41
2017-08-19T10:38:59.248Z,62.22
2017-08-19T10:39:59.534Z,62.99
2017-08-19T10:40:59.611Z,61.29
2017-08-19T10:41:59.550Z,61.25
2017-08-19T10:42:59.555Z,61.55
2017-08-19T10:43:59.553Z,61.93
2017-08-19T10:44:59.553Z,61.83
2017-08-19T10:45:59.606Z,62.7
2017-08-19T10:46:59.266Z,62.32
2017-08-19T10:47:59.566Z,62.45
2017-08-19T10:48:59.571Z,61.45
2017-08-19T10:49:59.571Z,61
2017-08-19T10:50:59.657Z,60.8
2017-08-19T10:51:59.584Z,61
2017-08-19T10:52:59.287Z,60.71
2017-08-19T10:53:59.287Z,60.9
2017-08-19T10:54:59.593Z,60.9
2017-08-19T10:55:59.683Z,60.8
2017-08-19T10:56:59.605Z,60.42
2017-08-19T10:57:59.609Z,61.38
2017-08-19T10:58:59.609Z,61.87
2017-08-19T10:59:59.616Z,62.28
2017-08-19T11:00:59.625Z,61.99
2017-08-19T11:01:59.620Z,59.3
2017-08-19T11:02:59.622Z,58.36
2017-08-19T11:03:59.626Z,60.19
2017-08-19T11:04:59.633Z,59.32
2017-08-19T11:05:59.729Z,58.07
2017-08-19T11:06:59.642Z,57.32
2017-08-19T11:07:59.643Z,56.94
2017-08-19T11:08:59.649Z,55.71
2017-08-19T11:09:59.657Z,55.13
2017-08-19T11:10:59.731Z,54.68
2017-08-19T11:11:59.675Z,54.68
2017-08-19T11:12:59.676Z,53.06
2017-08-19T11:13:59.676Z,53.23
2017-08-19T11:14:59.677Z,53.71
2017-08-19T11:15:59.772Z,53.71
2017-08-19T11:16:59.686Z,55.26
2017-08-19T11:17:59.690Z,53.42
2017-08-19T11:18:59.397Z,52.81
2017-08-19T11:20:01.451Z,53.49
2017-08-19T11:20:59.775Z,54.05
2017-08-19T11:21:59.713Z,52.43
2017-08-19T11:22:59.721Z,52.79
2017-08-19T11:23:59.418Z,52.89
2017-08-19T11:24:59.722Z,53.47
2017-08-19T11:25:59.753Z,53.27
2017-08-19T11:26:59.742Z,53.47
2017-08-19T11:27:59.434Z,53.95
2017-08-19T11:28:59.457Z,53.27
2017-08-19T11:29:59.747Z,54.24
2017-08-19T11:30:59.856Z,54.05
2017-08-19T11:31:59.755Z,53.56
2017-08-19T11:32:59.760Z,52.89
2017-08-19T11:33:59.776Z,52.59
2017-08-19T11:34:59.767Z,52.79
2017-08-19T11:35:59.818Z,51.07
2017-08-19T11:36:59.787Z,50.89
2017-08-19T11:37:59.785Z,51.07
2017-08-19T11:38:59.790Z,51.37
2017-08-19T11:39:59.792Z,51.95
2017-08-19T11:40:59.834Z,52.01
2017-08-19T11:41:59.805Z,52.5
2017-08-19T11:42:59.818Z,52.11
2017-08-19T11:43:59.819Z,51.95
2017-08-19T11:44:59.817Z,50.69
2017-08-19T11:45:59.914Z,50.69
2017-08-19T11:46:59.828Z,51.1
2017-08-19T11:47:59.830Z,50.13
2017-08-19T11:48:59.839Z,49.95
2017-08-19T11:50:03.340Z,48.69
2017-08-19T11:50:59.905Z,49.27
2017-08-19T11:51:59.853Z,51.1
2017-08-19T11:52:59.551Z,50.71
2017-08-19T11:53:59.857Z,51.17
2017-08-19T11:54:59.569Z,51.95
2017-08-19T11:55:59.951Z,52.31
2017-08-19T11:56:59.577Z,52.01
2017-08-19T11:57:59.886Z,51.25
2017-08-19T11:58:59.885Z,52.21
2017-08-19T11:59:59.886Z,52.01
2017-08-19T12:00:59.921Z,51.34
2017-08-19T12:01:59.908Z,52.4
2017-08-19T12:02:59.908Z,52.79
2017-08-19T12:03:59.600Z,53.27
2017-08-19T12:04:59.917Z,52.5
2017-08-19T12:05:59.936Z,52.11
2017-08-19T12:06:59.622Z,51.44
2017-08-19T12:07:59.930Z,51.37
2017-08-19T12:08:59.927Z,50.79
2017-08-19T12:09:59.927Z,51.17
2017-08-19T12:11:00.009Z,50.59
2017-08-19T12:11:59.937Z,50.5
2017-08-19T12:12:59.949Z,50.69
2017-08-19T12:13:59.949Z,50.38
2017-08-19T12:14:59.964Z,50.86
2017-08-19T12:15:59.993Z,51.25
2017-08-19T12:16:59.966Z,50.67
2017-08-19T12:17:59.978Z,50.57
2017-08-19T12:18:59.973Z,51.05
2017-08-19T12:19:59.677Z,51.34
2017-08-19T12:21:00.041Z,50.86
2017-08-19T12:21:59.993Z,50.86
2017-08-19T12:22:59.988Z,51.44
2017-08-19T12:24:00.002Z,51.65
2017-08-19T12:24:59.999Z,51.17
2017-08-19T12:26:00.026Z,51.27
2017-08-19T12:26:59.999Z,52.14
2017-08-19T12:28:00.005Z,52.91
2017-08-19T12:29:00.012Z,53.56
2017-08-19T12:29:59.711Z,54.21
2017-08-19T12:30:59.735Z,55.08
2017-08-19T12:32:00.018Z,55.54
2017-08-19T12:32:59.722Z,55.82
2017-08-19T12:34:00.032Z,56.59
2017-08-19T12:35:00.033Z,56.59
2017-08-19T12:35:59.784Z,56.79
2017-08-19T12:36:59.738Z,56.4
2017-08-19T12:37:59.739Z,55.82
2017-08-19T12:39:00.050Z,55.44
2017-08-19T12:40:00.053Z,54.18
2017-08-19T12:41:00.099Z,53.73
2017-08-19T12:42:00.062Z,53.53
2017-08-19T12:43:00.063Z,53.53
2017-08-19T12:44:00.067Z,53.92
2017-08-19T12:45:00.070Z,53.34
2017-08-19T12:45:59.811Z,52.89
2017-08-19T12:47:00.080Z,52.89
2017-08-19T12:48:00.084Z,52.4
2017-08-19T12:49:00.114Z,52.69
2017-08-19T12:49:59.817Z,52.79
2017-08-19T12:51:01.482Z,51.92
2017-08-19T12:52:00.099Z,52.11
2017-08-19T12:53:00.107Z,52.01
2017-08-19T12:54:00.108Z,51.05
2017-08-19T12:55:00.117Z,51.73